Time;durP1;ratioP1;P1;durP2;ratioP2;P2;SDS_P1;SDS_P2;PMS_P1;PMS_P2;Temp;Humidity;BMP_temperature;BMP_pressure;BME280_temperature;BME280_humidity;BME280_pressure;Samples;Min_cycle;Max_cycle;Signal;HPM_P1;HPM_P2
2022/10/25 00:00:21;;;;;;;19.15;12.40;;;13.20;99.90;;;;;;5052465;28;20406;-53
2022/10/25 00:02:47;;;;;;;20.83;12.73;;;13.20;99.90;;;;;;5063478;28;20121;-53
2022/10/25 00:05:14;;;;;;;27.27;14.30;;;13.20;99.90;;;;;;5070309;28;20493;-50
2022/10/25 00:07:40;;;;;;;17.08;12.75;;;13.20;99.90;;;;;;5054412;28;20284;-54
2022/10/25 00:10:06;;;;;;;20.70;12.98;;;13.30;99.90;;;;;;5052035;28;20033;-53
2022/10/25 00:12:31;;;;;;;18.00;12.63;;;13.20;99.90;;;;;;5057028;28;20078;-52
2022/10/25 00:15:00;;;;;;;19.30;12.98;;;13.20;99.90;;;;;;5057309;28;20049;-53
2022/10/25 00:17:26;;;;;;;23.65;12.85;;;13.20;99.90;;;;;;5057955;28;20039;-54
2022/10/25 00:19:51;;;;;;;19.95;13.73;;;13.20;99.90;;;;;;5071110;28;20040;-52
2022/10/25 00:22:17;;;;;;;19.38;13.18;;;13.20;99.90;;;;;;5069540;28;20045;-50
2022/10/25 00:24:42;;;;;;;27.07;13.97;;;13.20;99.90;;;;;;5064182;28;20116;-53
2022/10/25 00:27:08;;;;;;;24.07;12.47;;;13.10;99.90;;;;;;5057094;28;20336;-52
2022/10/25 00:29:34;;;;;;;19.50;13.02;;;13.10;99.90;;;;;;5058666;28;20040;-53
2022/10/25 00:31:59;;;;;;;21.80;13.23;;;13.00;99.90;;;;;;5051115;28;20041;-53
2022/10/25 00:34:25;;;;;;;22.73;14.47;;;13.00;99.90;;;;;;5067166;28;20048;-53
2022/10/25 00:36:50;;;;;;;24.00;13.37;;;12.90;99.90;;;;;;5069074;28;20283;-54
2022/10/25 00:39:16;;;;;;;25.60;13.87;;;12.90;99.90;;;;;;5052239;28;20288;-54
2022/10/25 00:41:42;;;;;;;20.07;12.90;;;12.80;99.90;;;;;;5051380;28;20067;-54
2022/10/25 00:44:35;;;;;;;20.55;13.73;;;12.80;99.90;;;;;;5064298;28;20366;-51
2022/10/25 00:47:05;;;;;;;21.83;13.98;;;12.70;99.90;;;;;;5071324;28;20128;-54
2022/10/25 00:49:32;;;;;;;22.48;13.52;;;12.70;99.90;;;;;;5053679;28;20038;-52
2022/10/25 00:52:00;;;;;;;24.52;14.00;;;12.70;99.90;;;;;;5071196;28;20053;-49
2022/10/25 00:54:32;;;;;;;16.80;13.35;;;12.70;99.90;;;;;;5055552;28;20072;-50
2022/10/25 00:57:02;;;;;;;22.98;13.55;;;12.70;99.90;;;;;;5051352;28;20120;-51
2022/10/25 00:59:28;;;;;;;23.27;14.15;;;12.60;99.90;;;;;;5050765;28;20514;-50
2022/10/25 01:01:54;;;;;;;18.95;12.45;;;12.60;99.90;;;;;;5051309;28;20344;-50
2022/10/25 01:04:23;;;;;;;18.40;11.63;;;12.70;99.90;;;;;;5055049;28;20024;-50
2022/10/25 01:06:52;;;;;;;14.52;10.55;;;12.60;99.90;;;;;;5071265;28;20040;-49
2022/10/25 01:09:30;;;;;;;16.35;11.18;;;12.70;99.90;;;;;;5070704;28;20065;-50
2022/10/25 01:11:56;;;;;;;17.70;11.40;;;12.70;99.90;;;;;;5050797;28;20045;-49
2022/10/25 01:14:22;;;;;;;19.42;11.15;;;12.70;99.90;;;;;;5051445;28;20102;-50
2022/10/25 01:17:03;;;;;;;21.25;10.07;;;12.70;99.90;;;;;;5050866;28;20089;-49
2022/10/25 01:19:46;;;;;;;15.60;8.27;;;12.70;99.90;;;;;;5051005;28;20044;-50
2022/10/25 01:22:22;;;;;;;19.25;9.60;;;12.60;99.90;;;;;;5051167;28;20040;-50
2022/10/25 01:25:17;;;;;;;17.93;9.40;;;12.60;99.90;;;;;;5054680;28;20032;-50
2022/10/25 01:28:10;;;;;;;13.13;7.60;;;12.60;99.90;;;;;;5036632;28;20087;-50
2022/10/25 01:31:06;;;;;;;16.52;7.75;;;12.60;99.90;;;;;;5069902;28;20063;-49
2022/10/25 01:33:46;;;;;;;19.85;9.45;;;12.60;99.90;;;;;;5062687;28;20049;-49
2022/10/25 01:36:56;;;;;;;13.10;8.70;;;12.60;99.90;;;;;;5051010;28;20138;-50
2022/10/25 01:39:25;;;;;;;14.55;8.02;;;12.60;99.90;;;;;;5061800;28;20501;-50
2022/10/25 01:41:58;;;;;;;12.65;8.13;;;12.60;99.90;;;;;;5050505;28;20045;-50
2022/10/25 01:44:43;;;;;;;15.45;8.73;;;12.60;99.90;;;;;;5063326;28;20043;-50
2022/10/25 01:47:17;;;;;;;22.40;8.80;;;12.60;99.90;;;;;;5067317;28;20029;-49
2022/10/25 01:50:01;;;;;;;15.05;9.50;;;12.50;99.90;;;;;;5068571;28;20529;-49
2022/10/25 01:52:26;;;;;;;11.85;8.93;;;12.50;99.90;;;;;;5070162;28;20083;-50
2022/10/25 01:54:52;;;;;;;17.10;9.20;;;12.60;99.90;;;;;;5066596;28;20064;-50
2022/10/25 01:57:33;;;;;;;23.35;10.70;;;12.50;99.90;;;;;;5069192;28;20036;-49
2022/10/25 02:00:16;;;;;;;17.35;10.80;;;12.50;99.90;;;;;;5054949;28;20479;-49
2022/10/25 02:03:05;;;;;;;26.63;12.77;;;12.50;99.90;;;;;;5050405;28;20041;-51
2022/10/25 02:05:43;;;;;;;22.52;12.80;;;12.50;99.90;;;;;;5050307;28;20036;-50
2022/10/25 02:08:28;;;;;;;23.55;13.50;;;12.50;99.90;;;;;;5051311;28;20048;-50
2022/10/25 02:11:10;;;;;;;23.00;13.18;;;12.50;99.90;;;;;;5059634;28;20093;-51
2022/10/25 02:14:04;;;;;;;24.73;13.93;;;12.50;99.90;;;;;;5068506;28;20070;-50
2022/10/25 02:17:03;;;;;;;21.83;14.65;;;12.60;99.90;;;;;;5050727;28;20120;-50
2022/10/25 02:19:51;;;;;;;20.42;14.23;;;12.70;99.90;;;;;;5051156;28;20098;-50
2022/10/25 02:22:20;;;;;;;24.70;17.23;;;12.70;99.90;;;;;;5063889;28;20080;-53
2022/10/25 02:24:49;;;;;;;37.45;17.40;;;12.80;99.90;;;;;;5058655;28;20051;-54
2022/10/25 02:27:16;;;;;;;28.05;16.08;;;12.80;99.90;;;;;;5053957;28;20032;-51
2022/10/25 02:29:45;;;;;;;18.00;13.98;;;12.80;99.90;;;;;;5062683;28;20041;-49
2022/10/25 02:32:11;;;;;;;26.70;17.58;;;12.90;99.90;;;;;;5049849;28;20464;-52
2022/10/25 02:34:38;;;;;;;24.52;16.17;;;12.80;99.90;;;;;;5056613;28;20128;-50
2022/10/25 02:37:04;;;;;;;28.50;15.40;;;12.90;99.90;;;;;;5058036;28;20033;-51
2022/10/25 02:39:29;;;;;;;28.93;15.80;;;12.90;99.90;;;;;;5059410;28;20520;-52
2022/10/25 02:41:55;;;;;;;23.10;14.90;;;13.00;99.90;;;;;;5052122;28;20124;-52
2022/10/25 02:44:20;;;;;;;32.28;16.00;;;13.00;99.90;;;;;;5064318;28;20064;-53
2022/10/25 02:46:46;;;;;;;30.13;16.27;;;13.00;99.90;;;;;;5053852;28;20037;-52
2022/10/25 02:49:11;;;;;;;19.70;14.80;;;13.00;99.90;;;;;;5055741;28;20135;-51
2022/10/25 02:51:37;;;;;;;19.53;14.63;;;13.10;99.90;;;;;;5071664;28;20283;-50
2022/10/25 02:54:03;;;;;;;24.58;16.05;;;13.10;99.90;;;;;;5059044;28;20049;-54
2022/10/25 02:56:29;;;;;;;25.63;15.30;;;13.20;99.90;;;;;;5073140;28;20041;-52
2022/10/25 02:58:56;;;;;;;21.88;14.55;;;13.10;99.90;;;;;;5067335;28;20367;-52
2022/10/25 03:01:22;;;;;;;19.20;14.98;;;13.10;99.90;;;;;;5053512;28;20374;-53
2022/10/25 03:03:48;;;;;;;;;;;13.10;99.90;;;;;;5053440;28;20033;-53
2022/10/25 03:06:14;;;;;;;27.38;15.10;;;13.10;99.90;;;;;;5053060;28;19924;-52
2022/10/25 03:08:41;;;;;;;26.17;14.93;;;13.10;99.90;;;;;;5051840;28;20052;-53
2022/10/25 03:11:08;;;;;;;21.02;14.30;;;13.10;99.90;;;;;;5073262;28;20066;-54
2022/10/25 03:13:34;;;;;;;26.20;17.50;;;13.10;99.90;;;;;;5072966;28;20045;-53
2022/10/25 03:16:00;;;;;;;29.00;15.38;;;13.10;99.90;;;;;;5073014;28;20409;-54
2022/10/25 03:18:26;;;;;;;25.35;14.52;;;13.10;99.90;;;;;;5073215;28;20044;-53
2022/10/25 03:20:54;;;;;;;22.70;15.52;;;13.10;99.90;;;;;;5071011;28;20404;-54
2022/10/25 03:23:20;;;;;;;22.60;15.10;;;13.10;99.90;;;;;;5072897;28;20040;-50
2022/10/25 03:25:45;;;;;;;31.03;14.53;;;13.10;99.90;;;;;;5071564;28;20066;-50
2022/10/25 03:28:11;;;;;;;23.03;15.77;;;13.10;99.90;;;;;;5071106;28;20290;-50
2022/10/25 03:30:36;;;;;;;26.13;15.73;;;13.10;99.90;;;;;;5065496;28;20033;-50
2022/10/25 03:33:02;;;;;;;34.13;15.90;;;13.10;99.90;;;;;;5070782;28;20103;-49
2022/10/25 03:35:28;;;;;;;20.23;14.18;;;13.10;99.90;;;;;;5072430;28;20141;-49
2022/10/25 03:37:54;;;;;;;24.35;14.55;;;13.10;99.90;;;;;;5069137;28;20044;-50
2022/10/25 03:40:19;;;;;;;24.90;15.65;;;13.10;99.90;;;;;;5071946;28;20036;-49
2022/10/25 03:42:45;;;;;;;26.40;15.18;;;13.10;99.90;;;;;;5067498;28;20578;-49
2022/10/25 03:45:11;;;;;;;25.70;14.68;;;13.10;99.90;;;;;;5063816;28;20037;-50
2022/10/25 03:47:37;;;;;;;25.38;14.32;;;13.20;99.90;;;;;;5059218;28;20041;-49
2022/10/25 03:50:04;;;;;;;33.08;14.15;;;13.20;99.90;;;;;;5053103;28;20087;-49
2022/10/25 03:52:29;;;;;;;21.25;13.77;;;13.20;99.90;;;;;;5062389;28;20077;-49
2022/10/25 03:54:55;;;;;;;24.23;14.77;;;13.20;99.90;;;;;;5067141;28;20091;-50
2022/10/25 03:57:20;;;;;;;23.05;14.80;;;13.20;99.90;;;;;;5059728;28;20649;-50
2022/10/25 03:59:46;;;;;;;32.28;14.50;;;13.20;99.90;;;;;;5052480;28;20040;-51
2022/10/25 04:02:13;;;;;;;24.95;15.38;;;13.20;99.90;;;;;;5059649;28;20072;-51
2022/10/25 04:04:39;;;;;;;29.23;15.63;;;13.30;99.90;;;;;;5059604;28;20040;-49
2022/10/25 04:07:04;;;;;;;17.88;14.02;;;13.30;99.90;;;;;;5061220;28;20423;-50
2022/10/25 04:09:30;;;;;;;24.05;14.77;;;13.30;99.90;;;;;;5063450;28;20512;-49
2022/10/25 04:11:55;;;;;;;23.40;14.35;;;13.30;99.90;;;;;;5059790;28;20044;-51
2022/10/25 04:14:21;;;;;;;22.88;14.02;;;13.30;99.90;;;;;;5072099;28;20052;-49
2022/10/25 04:16:47;;;;;;;21.67;14.35;;;13.30;99.90;;;;;;5064685;28;20051;-50
2022/10/25 04:19:12;;;;;;;25.43;13.60;;;13.30;99.90;;;;;;5070968;28;20045;-50
2022/10/25 04:21:38;;;;;;;27.47;14.83;;;13.30;99.90;;;;;;5061714;28;20303;-50
2022/10/25 04:24:04;;;;;;;23.00;14.27;;;13.30;99.90;;;;;;5060023;28;20349;-50
2022/10/25 04:26:30;;;;;;;21.52;13.90;;;13.30;99.90;;;;;;5063803;28;20043;-50
2022/10/25 04:28:55;;;;;;;24.20;14.65;;;13.30;99.90;;;;;;5055268;28;20037;-49
2022/10/25 04:31:22;;;;;;;22.75;14.20;;;13.30;99.90;;;;;;5051741;28;20047;-49
2022/10/25 04:33:52;;;;;;;27.17;13.65;;;13.40;99.90;;;;;;5052049;28;20029;-50
2022/10/25 04:36:18;;;;;;;23.52;13.63;;;13.40;99.90;;;;;;5057327;28;20043;-50
2022/10/25 04:38:47;;;;;;;27.25;13.10;;;13.40;99.90;;;;;;5059406;28;20036;-51
2022/10/25 04:41:13;;;;;;;26.98;13.75;;;13.40;99.90;;;;;;5050437;28;20041;-53
2022/10/25 04:43:39;;;;;;;24.77;13.32;;;13.30;99.90;;;;;;5054893;28;20124;-50
2022/10/25 04:46:05;;;;;;;19.35;12.82;;;13.40;99.90;;;;;;5051485;28;20033;-50
2022/10/25 04:48:30;;;;;;;29.20;14.50;;;13.40;99.90;;;;;;5058527;28;20045;-53
2022/10/25 04:50:59;;;;;;;27.08;13.93;;;13.40;99.90;;;;;;5058349;28;20043;-49
2022/10/25 04:53:25;;;;;;;28.40;14.02;;;13.40;99.90;;;;;;5067096;28;20066;-48
2022/10/25 04:56:03;;;;;;;26.10;13.60;;;13.40;99.90;;;;;;5062344;28;20524;-50
2022/10/25 04:58:29;;;;;;;21.20;13.20;;;13.30;99.90;;;;;;5071361;28;20052;-53
2022/10/25 05:01:00;;;;;;;23.08;12.48;;;13.30;99.90;;;;;;5051092;28;20426;-52
2022/10/25 05:03:26;;;;;;;29.83;13.77;;;13.20;99.90;;;;;;5050839;28;20123;-48
2022/10/25 05:05:51;;;;;;;23.38;12.38;;;13.20;99.90;;;;;;5049676;28;20080;-49
2022/10/25 05:08:17;;;;;;;25.33;13.50;;;13.20;99.90;;;;;;5069779;28;20029;-53
2022/10/25 05:10:42;;;;;;;25.23;12.10;;;13.10;99.90;;;;;;5069520;28;20286;-49
2022/10/25 05:13:08;;;;;;;23.17;11.98;;;13.10;99.90;;;;;;5070530;28;20086;-50
2022/10/25 05:15:33;;;;;;;27.80;14.00;;;13.10;99.90;;;;;;5066399;28;20045;-53
2022/10/25 05:17:59;;;;;;;19.70;12.43;;;13.10;99.90;;;;;;5051067;28;20032;-52
2022/10/25 05:20:26;;;;;;;29.17;12.95;;;13.00;99.90;;;;;;5052267;28;20118;-52
2022/10/25 05:22:52;;;;;;;22.92;11.98;;;13.00;99.90;;;;;;5050600;28;20041;-52
2022/10/25 05:25:17;;;;;;;20.00;11.90;;;13.00;99.90;;;;;;5050853;28;20525;-52
2022/10/25 05:27:43;;;;;;;29.17;11.90;;;13.00;99.90;;;;;;5053199;28;20513;-51
2022/10/25 05:30:09;;;;;;;25.40;11.98;;;13.00;99.90;;;;;;5061689;28;20033;-53
2022/10/25 05:32:35;;;;;;;23.80;12.05;;;12.90;99.90;;;;;;5055294;28;20052;-52
2022/10/25 05:35:00;;;;;;;18.10;11.02;;;12.90;99.90;;;;;;5055465;28;20048;-53
2022/10/25 05:37:26;;;;;;;28.73;11.93;;;12.90;99.90;;;;;;5059821;28;20071;-52
2022/10/25 05:39:52;;;;;;;20.40;10.90;;;12.90;99.90;;;;;;5056107;28;20414;-51
2022/10/25 05:42:17;;;;;;;29.43;11.40;;;12.90;99.90;;;;;;5051849;28;20448;-51
2022/10/25 05:44:43;;;;;;;23.40;11.73;;;12.90;99.90;;;;;;5058966;28;20048;-53
2022/10/25 05:47:08;;;;;;;36.97;11.70;;;13.00;99.90;;;;;;5087270;28;20501;-52
2022/10/25 05:49:38;;;;;;;25.67;11.40;;;13.00;99.90;;;;;;5085423;28;20129;-49
2022/10/25 05:52:05;;;;;;;18.48;10.10;;;12.90;99.90;;;;;;5052594;28;20049;-48
2022/10/25 05:54:30;;;;;;;21.88;10.38;;;12.90;99.90;;;;;;5061701;28;20037;-49
2022/10/25 05:56:56;;;;;;;25.15;10.15;;;12.90;99.90;;;;;;5051532;28;20067;-48
2022/10/25 05:59:21;;;;;;;21.47;11.83;;;12.90;99.90;;;;;;5049603;28;20044;-48
2022/10/25 06:01:47;;;;;;;25.50;10.70;;;12.90;99.90;;;;;;5051296;28;20307;-49
2022/10/25 06:04:14;;;;;;;24.90;11.30;;;12.90;99.90;;;;;;5050118;28;20036;-48
2022/10/25 06:06:42;;;;;;;;;;;12.90;99.90;;;;;;5056823;28;20036;-48
2022/10/25 06:09:08;;;;;;;25.45;10.95;;;12.80;99.90;;;;;;5050980;28;20357;-49
2022/10/25 06:11:34;;;;;;;;;;;12.80;99.90;;;;;;5069350;28;20064;-49
2022/10/25 06:14:00;;;;;;;24.92;11.98;;;12.80;99.90;;;;;;5069253;28;19975;-48
2022/10/25 06:16:26;;;;;;;27.85;13.07;;;12.80;99.90;;;;;;5070211;28;20512;-49
2022/10/25 06:18:53;;;;;;;22.58;11.77;;;12.80;99.90;;;;;;5069869;28;20094;-49
2022/10/25 06:21:21;;;;;;;26.38;12.20;;;12.80;99.90;;;;;;5069569;28;20036;-49
2022/10/25 06:23:47;;;;;;;33.42;12.43;;;12.80;99.90;;;;;;5069663;28;20036;-48
2022/10/25 06:26:16;;;;;;;18.73;11.00;;;12.80;99.90;;;;;;5067852;28;21594;-49
2022/10/25 06:28:43;;;;;;;22.60;11.57;;;12.80;99.90;;;;;;5061151;28;20045;-50
2022/10/25 06:31:13;;;;;;;22.85;12.63;;;12.80;99.90;;;;;;5049750;28;20041;-48
2022/10/25 06:33:39;;;;;;;27.23;12.25;;;12.80;99.90;;;;;;5063597;28;20055;-48
2022/10/25 06:36:15;;;;;;;28.75;12.13;;;12.80;99.90;;;;;;5069211;28;20045;-49
2022/10/25 06:38:41;;;;;;;31.55;12.93;;;12.80;99.90;;;;;;5054754;28;20090;-48
2022/10/25 06:41:11;;;;;;;27.90;13.57;;;12.80;99.90;;;;;;5058301;28;20037;-48
2022/10/25 06:43:37;;;;;;;23.33;12.45;;;12.80;99.90;;;;;;5067086;28;20068;-49
2022/10/25 06:46:23;;;;;;;29.92;13.70;;;12.90;99.90;;;;;;5065442;28;20048;-51
2022/10/25 06:48:49;;;;;;;23.27;12.43;;;13.00;99.90;;;;;;5062157;28;20028;-49
2022/10/25 06:51:15;;;;;;;24.33;12.38;;;13.10;99.90;;;;;;5058296;28;20406;-48
2022/10/25 06:53:41;;;;;;;23.15;10.95;;;13.20;99.90;;;;;;5061004;28;20055;-49
2022/10/25 06:56:08;;;;;;;38.10;11.82;;;13.20;99.90;;;;;;5060287;28;20044;-54
2022/10/25 06:58:35;;;;;;;25.80;11.25;;;13.20;99.90;;;;;;5050541;28;20124;-51
2022/10/25 07:01:10;;;;;;;23.10;11.07;;;13.30;99.90;;;;;;5057241;28;20036;-51
2022/10/25 07:03:36;;;;;;;21.10;11.05;;;13.50;99.90;;;;;;5067265;28;20094;-51
2022/10/25 07:06:09;;;;;;;24.27;11.40;;;13.60;99.90;;;;;;5067461;28;20205;-51
2022/10/25 07:08:37;;;;;;;24.48;9.13;;;13.80;99.90;;;;;;5069057;28;20406;-51
2022/10/25 07:11:04;;;;;;;15.80;7.63;;;14.00;99.90;;;;;;5062270;28;20044;-54
2022/10/25 07:13:32;;;;;;;20.83;8.55;;;14.30;99.90;;;;;;5050010;28;20156;-52
2022/10/25 07:16:02;;;;;;;22.63;8.18;;;14.60;99.90;;;;;;5054683;28;20041;-51
2022/10/25 07:18:29;;;;;;;17.80;8.55;;;14.80;99.90;;;;;;5068896;28;20075;-54
2022/10/25 07:20:58;;;;;;;19.15;7.10;;;15.00;99.90;;;;;;5064796;28;20040;-51
2022/10/25 07:23:24;;;;;;;17.60;6.85;;;15.30;99.90;;;;;;5048888;28;20539;-53
2022/10/25 07:25:49;;;;;;;13.93;6.50;;;15.60;99.90;;;;;;5060627;28;20114;-53
2022/10/25 07:28:15;;;;;;;22.70;7.43;;;16.00;99.90;;;;;;5053436;28;20296;-51
2022/10/25 07:30:47;;;;;;;15.15;7.97;;;16.00;99.90;;;;;;5059751;28;20036;-53
2022/10/25 07:33:15;;;;;;;12.57;7.60;;;15.80;99.90;;;;;;5059893;28;20040;-53
2022/10/25 07:35:45;;;;;;;16.17;7.70;;;15.70;99.90;;;;;;5072962;28;20046;-54
2022/10/25 07:38:11;;;;;;;25.55;7.70;;;15.50;99.90;;;;;;5068825;28;20443;-51
2022/10/25 07:40:37;;;;;;;18.77;7.38;;;15.30;99.90;;;;;;5065782;28;20041;-52
2022/10/25 07:43:02;;;;;;;13.68;7.15;;;15.10;99.90;;;;;;5064701;28;20413;-52
2022/10/25 07:45:28;;;;;;;16.75;7.40;;;15.00;99.90;;;;;;5052268;28;20045;-53
2022/10/25 07:47:53;;;;;;;22.88;7.70;;;14.90;99.90;;;;;;5060267;28;20040;-51
2022/10/25 07:50:19;;;;;;;14.60;7.88;;;14.80;99.90;;;;;;5072481;28;20043;-55
2022/10/25 07:52:45;;;;;;;22.25;8.57;;;14.60;99.90;;;;;;5072516;28;20036;-51
2022/10/25 07:55:11;;;;;;;15.05;8.02;;;14.60;99.90;;;;;;5071901;28;20599;-51
2022/10/25 07:57:37;;;;;;;21.23;9.90;;;14.60;99.90;;;;;;5072445;28;20124;-54
2022/10/25 08:00:04;;;;;;;19.55;8.93;;;14.60;99.90;;;;;;5063128;28;20041;-55
2022/10/25 08:02:29;;;;;;;18.58;9.30;;;14.60;99.90;;;;;;5052590;28;20055;-53
2022/10/25 08:04:55;;;;;;;22.07;9.63;;;14.60;99.90;;;;;;5053220;28;20139;-54
2022/10/25 08:07:20;;;;;;;19.13;10.03;;;14.70;99.90;;;;;;5070232;28;20283;-55
2022/10/25 08:09:46;;;;;;;21.42;9.93;;;14.70;99.90;;;;;;5072112;28;20041;-52
2022/10/25 08:12:11;;;;;;;17.80;10.00;;;14.70;99.90;;;;;;5061205;28;20509;-54
2022/10/25 08:14:37;;;;;;;14.90;8.25;;;14.80;99.90;;;;;;5051413;28;20090;-55
2022/10/25 08:17:02;;;;;;;22.10;10.05;;;14.80;99.90;;;;;;5059782;28;20049;-55
2022/10/25 08:19:28;;;;;;;19.95;9.38;;;14.70;99.90;;;;;;5072119;28;20043;-55
2022/10/25 08:21:53;;;;;;;14.98;9.18;;;14.80;99.90;;;;;;5065231;28;20040;-51
2022/10/25 08:24:19;;;;;;;23.20;10.02;;;14.80;99.90;;;;;;5062744;28;20040;-53
2022/10/25 08:26:45;;;;;;;20.45;10.50;;;14.70;99.90;;;;;;5054832;28;20036;-54
2022/10/25 08:29:10;;;;;;;18.73;9.35;;;14.70;99.90;;;;;;5055350;28;20083;-53
2022/10/25 08:31:36;;;;;;;24.17;10.20;;;14.70;99.90;;;;;;5071829;28;20040;-51
2022/10/25 08:34:02;;;;;;;29.52;11.20;;;14.80;99.90;;;;;;5061968;28;20035;-52
2022/10/25 08:36:27;;;;;;;17.02;9.55;;;14.80;99.90;;;;;;5068240;28;20040;-54
2022/10/25 08:38:53;;;;;;;22.13;11.98;;;14.90;99.90;;;;;;5058687;28;20115;-53
2022/10/25 08:41:26;;;;;;;21.10;10.48;;;14.90;99.90;;;;;;5066057;28;20040;-53
2022/10/25 08:44:20;;;;;;;21.65;11.27;;;14.80;99.90;;;;;;5061274;28;20044;-55
2022/10/25 08:46:57;;;;;;;21.77;10.52;;;14.80;99.90;;;;;;5070950;28;20072;-53
2022/10/25 08:49:43;;;;;;;18.90;11.90;;;14.70;99.90;;;;;;5071357;28;20392;-51
2022/10/25 08:52:39;;;;;;;19.83;11.82;;;14.60;99.90;;;;;;5065687;28;20040;-51
2022/10/25 08:55:16;;;;;;;21.33;11.85;;;14.50;99.90;;;;;;5064075;28;20047;-52
2022/10/25 08:57:47;;;;;;;23.75;10.82;;;14.50;99.90;;;;;;5051386;28;20525;-52
2022/10/25 09:00:22;;;;;;;19.48;11.27;;;14.50;99.90;;;;;;5050172;28;20048;-54
2022/10/25 09:02:51;;;;;;;18.75;11.75;;;14.60;99.90;;;;;;5054622;28;20418;-55
2022/10/25 09:05:58;;;;;;;23.08;11.88;;;14.60;99.90;;;;;;5066687;28;20517;-55
2022/10/25 09:08:43;;;;;;;30.10;12.30;;;14.80;99.90;;;;;;5039338;28;20132;-56
2022/10/25 09:11:24;;;;;;;17.45;10.98;;;15.10;99.90;;;;;;5054842;28;20044;-55
2022/10/25 09:14:09;;;;;;;28.13;11.68;;;15.30;99.90;;;;;;5060901;28;20108;-55
2022/10/25 09:17:06;;;;;;;16.58;11.52;;;15.40;99.90;;;;;;5061630;28;20068;-55
2022/10/25 09:19:35;;;;;;;16.80;11.73;;;15.40;99.90;;;;;;5031106;28;20083;-55
2022/10/25 09:22:13;;;;;;;21.23;11.90;;;15.40;99.90;;;;;;5057723;28;20045;-53
2022/10/25 09:24:59;;;;;;;25.75;12.10;;;15.40;99.90;;;;;;5058956;28;20053;-52
2022/10/25 09:27:37;;;;;;;21.77;11.35;;;15.40;99.90;;;;;;5058472;28;20036;-54
2022/10/25 09:30:06;;;;;;;19.00;11.05;;;15.30;99.90;;;;;;5059339;28;20418;-55
2022/10/25 09:32:47;;;;;;;15.23;10.98;;;15.30;99.90;;;;;;5060548;28;20045;-52
2022/10/25 09:35:31;;;;;;;15.48;9.23;;;15.30;99.90;;;;;;5061162;28;20064;-55
2022/10/25 09:38:05;;;;;;;15.00;9.55;;;15.20;99.90;;;;;;5060310;28;20037;-54
2022/10/25 09:40:55;;;;;;;13.50;9.10;;;15.20;99.90;;;;;;5060027;28;20029;-53
2022/10/25 09:43:25;;;;;;;14.00;7.80;;;15.20;99.90;;;;;;5059490;28;20033;-55
2022/10/25 09:45:55;;;;;;;12.48;6.05;;;15.30;99.90;;;;;;5056522;28;20112;-54
2022/10/25 09:48:42;;;;;;;14.25;7.22;;;15.30;99.90;;;;;;5058825;28;20037;-54
2022/10/25 09:51:27;;;;;;;13.35;6.10;;;15.40;99.90;;;;;;5059310;28;20393;-53
2022/10/25 09:53:54;;;;;;;13.13;7.03;;;15.50;99.90;;;;;;5059699;28;20486;-51
2022/10/25 09:56:20;;;;;;;10.77;5.78;;;15.50;99.90;;;;;;5058824;28;20549;-55
2022/10/25 09:58:46;;;;;;;18.92;5.40;;;15.70;99.90;;;;;;5058953;28;20159;-55
2022/10/25 10:01:19;;;;;;;8.57;5.03;;;15.80;99.90;;;;;;5057036;28;20094;-52
2022/10/25 10:03:44;;;;;;;12.77;5.28;;;15.80;99.90;;;;;;5058953;28;20080;-55
2022/10/25 10:06:30;;;;;;;10.63;5.50;;;15.90;99.90;;;;;;5057603;28;20079;-53
2022/10/25 10:09:05;;;;;;;13.38;4.95;;;15.90;99.90;;;;;;5058210;28;20401;-51
2022/10/25 10:11:31;;;;;;;16.05;5.15;;;15.80;99.90;;;;;;5059464;28;20045;-53
2022/10/25 10:14:25;;;;;;;8.77;4.07;;;15.60;99.90;;;;;;5058321;28;20478;-53
2022/10/25 10:16:55;;;;;;;11.90;4.38;;;15.50;99.90;;;;;;5059686;28;20389;-54
2022/10/25 10:19:22;;;;;;;8.23;4.82;;;15.50;99.90;;;;;;5058234;28;20036;-55
2022/10/25 10:21:58;;;;;;;8.88;4.72;;;15.50;99.90;;;;;;5057842;28;20070;-55
2022/10/25 10:24:31;;;;;;;15.57;3.83;;;15.60;99.90;;;;;;5058840;28;20037;-53
2022/10/25 10:26:59;;;;;;;11.52;4.43;;;15.80;99.90;;;;;;5060427;28;20033;-55
2022/10/25 10:29:52;;;;;;;13.98;5.00;;;16.00;99.90;;;;;;5059040;28;20068;-51
2022/10/25 10:32:32;;;;;;;13.40;4.10;;;16.20;99.90;;;;;;5043247;28;20142;-52
2022/10/25 10:35:00;;;;;;;10.45;5.13;;;16.20;99.90;;;;;;5061002;28;20041;-51
2022/10/25 10:37:28;;;;;;;6.10;3.33;;;16.30;99.90;;;;;;5057881;28;20037;-52
2022/10/25 10:39:55;;;;;;;8.55;3.47;;;16.30;99.90;;;;;;5059784;28;20079;-54
2022/10/25 10:42:33;;;;;;;15.82;3.55;;;16.30;99.90;;;;;;5058006;28;20128;-55
2022/10/25 10:45:08;;;;;;;13.20;3.25;;;16.40;99.90;;;;;;5056041;28;20052;-54
2022/10/25 10:47:36;;;;;;;8.07;3.30;;;16.30;99.90;;;;;;5058941;28;20054;-54
2022/10/25 10:50:19;;;;;;;10.57;4.60;;;16.30;99.90;;;;;;5060432;28;20440;-55
2022/10/25 10:52:51;;;;;;;8.98;4.10;;;16.40;99.90;;;;;;5058737;28;20033;-54
2022/10/25 10:55:32;;;;;;;9.27;3.25;;;16.40;99.90;;;;;;5058236;28;20040;-53
2022/10/25 10:58:02;;;;;;;8.15;2.72;;;16.30;99.90;;;;;;5058117;28;20036;-55
2022/10/25 11:00:30;;;;;;;11.05;3.35;;;16.20;99.90;;;;;;5061130;28;20498;-55
2022/10/25 11:02:55;;;;;;;10.50;3.00;;;16.10;99.90;;;;;;5057941;28;20048;-55
2022/10/25 11:05:33;;;;;;;7.18;2.40;;;16.20;99.90;;;;;;5057669;28;20058;-55
2022/10/25 11:08:17;;;;;;;6.72;2.53;;;16.30;99.90;;;;;;5063888;28;20044;-55
2022/10/25 11:10:43;;;;;;;6.53;2.42;;;16.40;99.90;;;;;;5063109;28;20051;-52
2022/10/25 11:13:19;;;;;;;7.65;2.88;;;16.40;99.90;;;;;;5062449;28;20032;-53
2022/10/25 11:16:03;;;;;;;;;;;16.40;99.90;;;;;;5059746;28;20449;-53
2022/10/25 11:19:07;;;;;;;7.93;2.53;;;16.40;99.90;;;;;;5062375;28;20445;-51
2022/10/25 11:22:02;;;;;;;10.23;2.30;;;16.50;99.90;;;;;;5060747;28;20041;-54
2022/10/25 11:24:52;;;;;;;11.63;3.17;;;16.70;99.90;;;;;;5033832;28;20057;-53
2022/10/25 11:27:26;;;;;;;10.65;2.00;;;16.80;99.90;;;;;;5053988;28;20041;-53
2022/10/25 11:30:08;;;;;;;7.40;2.10;;;16.70;99.90;;;;;;5053120;28;20413;-53
2022/10/25 11:32:45;;;;;;;9.77;2.20;;;16.80;99.90;;;;;;5068112;28;20040;-55
2022/10/25 11:35:29;;;;;;;11.15;2.45;;;16.90;99.90;;;;;;5072718;28;20516;-53
2022/10/25 11:38:06;;;;;;;5.13;1.77;;;16.90;99.90;;;;;;5071789;28;20036;-54
2022/10/25 11:40:39;;;;;;;10.82;2.30;;;16.90;99.90;;;;;;5072428;28;20132;-53
2022/10/25 11:43:23;;;;;;;6.90;1.88;;;16.90;99.90;;;;;;5052188;28;20106;-53
2022/10/25 11:46:00;;;;;;;5.68;2.15;;;17.00;99.90;;;;;;5063615;28;20072;-54
2022/10/25 11:48:47;;;;;;;11.55;2.75;;;17.10;99.90;;;;;;5051768;28;20055;-50
2022/10/25 11:51:21;;;;;;;8.40;2.35;;;17.00;99.90;;;;;;5055224;28;20048;-51
2022/10/25 11:54:08;;;;;;;7.80;1.42;;;16.80;99.90;;;;;;5072697;28;20438;-50
2022/10/25 11:56:52;;;;;;;;;;;16.80;99.90;;;;;;5068613;28;20090;-51
2022/10/25 11:59:36;;;;;;;9.55;2.45;;;16.80;99.90;;;;;;5071822;28;19916;-53
2022/10/25 12:02:39;;;;;;;8.05;1.58;;;16.80;99.90;;;;;;5063056;28;20126;-51
2022/10/25 12:05:24;;;;;;;8.27;2.03;;;16.80;99.90;;;;;;5063163;28;20090;-50
2022/10/25 12:08:10;;;;;;;8.63;2.25;;;16.80;99.90;;;;;;5065127;28;20453;-51
2022/10/25 12:10:42;;;;;;;10.13;2.67;;;16.70;99.90;;;;;;5057306;28;20704;-52
2022/10/25 12:13:19;;;;;;;10.30;2.17;;;16.60;99.90;;;;;;5064729;28;20345;-51
2022/10/25 12:15:49;;;;;;;;;;;16.50;99.90;;;;;;5052796;28;20043;-50
2022/10/25 12:18:28;;;;;;;5.28;1.77;;;16.50;99.90;;;;;;5050979;28;20427;-50
2022/10/25 12:20:55;;;;;;;5.53;1.92;;;16.50;99.90;;;;;;5054411;28;20055;-50
2022/10/25 12:23:25;;;;;;;9.55;2.72;;;16.40;99.90;;;;;;5071649;28;20041;-52
2022/10/25 12:25:55;;;;;;;4.97;1.50;;;16.50;99.90;;;;;;5070718;28;20032;-51
2022/10/25 12:28:42;;;;;;;8.63;2.25;;;16.40;99.90;;;;;;5071423;28;20039;-53
2022/10/25 12:31:17;;;;;;;4.57;1.63;;;16.40;99.90;;;;;;5072017;28;20033;-51
2022/10/25 12:33:55;;;;;;;7.13;2.42;;;16.60;99.90;;;;;;5071029;28;20413;-51
2022/10/25 12:36:34;;;;;;;5.55;2.03;;;16.70;99.90;;;;;;5062358;28;20068;-50
2022/10/25 12:39:05;;;;;;;8.45;2.17;;;16.80;99.90;;;;;;5065269;28;20051;-52
2022/10/25 12:41:35;;;;;;;5.50;2.25;;;17.00;99.90;;;;;;5064096;28;20115;-53
2022/10/25 12:44:09;;;;;;;7.32;2.08;;;17.20;99.90;;;;;;5067719;28;20375;-50
2022/10/25 12:46:56;;;;;;;6.18;2.60;;;17.30;99.90;;;;;;5071330;28;20036;-50
2022/10/25 12:49:51;;;;;;;8.48;2.72;;;17.20;99.90;;;;;;5071380;28;20342;-53
2022/10/25 12:52:26;;;;;;;6.18;1.77;;;17.10;99.90;;;;;;5071395;28;20091;-53
2022/10/25 12:55:02;;;;;;;9.07;3.00;;;17.20;99.90;;;;;;5067551;28;20536;-51